Time;durP1;ratioP1;P1;durP2;ratioP2;P2;SDS_P1;SDS_P2;PMS_P1;PMS_P2;Temp;Humidity;BMP_temperature;BMP_pressure;BME280_temperature;BME280_humidity;BME280_pressure;Samples;Min_cycle;Max_cycle;Signal;HPM_P1;HPM_P2
2021/01/23 00:00:14;;;;;;;0.30;0.23;;;9.80;99.90;;;;;;20869019;28;20271;-70
2021/01/23 00:10:17;;;;;;;0.60;0.60;;;10.10;99.90;;;;;;20872397;28;20386;-68
2021/01/23 00:20:21;;;;;;;0.20;0.20;;;10.00;99.90;;;;;;20869542;28;20189;-69
2021/01/23 00:30:24;;;;;;;0.20;0.13;;;10.10;99.90;;;;;;20871125;28;20233;-69
2021/01/23 00:40:27;;;;;;;0.20;0.10;;;10.00;99.90;;;;;;20859730;28;20280;-69
2021/01/23 00:50:30;;;;;;;0.30;0.20;;;10.00;99.90;;;;;;20868397;28;20232;-70
2021/01/23 01:00:33;;;;;;;0.20;0.10;;;10.10;99.90;;;;;;20880528;22;20237;-66
2021/01/23 01:10:36;;;;;;;0.20;0.10;;;10.00;99.90;;;;;;20866026;28;20555;-65
2021/01/23 01:20:42;;;;;;;0.20;0.10;;;9.90;99.90;;;;;;20865699;28;20194;-67
2021/01/23 01:30:44;;;;;;;0.20;0.10;;;9.80;99.90;;;;;;20867613;28;20225;-67
2021/01/23 01:40:50;;;;;;;0.20;0.10;;;10.10;99.90;;;;;;20862792;28;20197;-67
2021/01/23 01:50:53;;;;;;;0.20;0.10;;;9.80;99.90;;;;;;20845700;28;20351;-67
2021/01/23 02:00:57;;;;;;;0.20;0.10;;;9.80;99.90;;;;;;20861679;28;20572;-67
2021/01/23 02:11:05;;;;;;;0.20;0.10;;;9.80;99.90;;;;;;20863184;28;20721;-66
2021/01/23 02:21:45;;;;;;;0.20;0.10;;;9.90;99.90;;;;;;20844727;28;20268;-67
2021/01/23 02:31:52;;;;;;;0.20;0.10;;;9.80;99.90;;;;;;20844139;28;20221;-65
2021/01/23 02:41:56;;;;;;;0.23;0.17;;;9.80;99.90;;;;;;20862884;28;20521;-67
2021/01/23 02:52:03;;;;;;;0.20;0.20;;;9.80;99.90;;;;;;20859010;28;20812;-67
2021/01/23 03:02:10;;;;;;;0.23;0.20;;;9.50;99.90;;;;;;20858774;28;20407;-67
2021/01/23 03:12:14;;;;;;;0.20;0.10;;;9.30;99.90;;;;;;20858092;28;20721;-67
2021/01/23 03:22:17;;;;;;;0.20;0.20;;;8.90;99.90;;;;;;20856751;28;20263;-67
2021/01/23 03:32:20;;;;;;;0.20;0.10;;;8.60;99.90;;;;;;20837589;28;20367;-66
2021/01/23 03:42:23;;;;;;;0.20;0.20;;;8.40;99.90;;;;;;20858186;28;20201;-67
2021/01/23 03:52:27;;;;;;;0.20;0.10;;;7.50;99.90;;;;;;20855441;28;20229;-67
2021/01/23 04:02:29;;;;;;;0.20;0.10;;;6.60;99.90;;;;;;20868781;22;20299;-67
2021/01/23 04:12:33;;;;;;;0.20;0.20;;;8.50;99.90;;;;;;20854615;28;20389;-70
2021/01/23 04:22:35;;;;;;;0.20;0.10;;;8.90;99.90;;;;;;20856171;28;20750;-68
2021/01/23 04:32:39;;;;;;;0.90;0.67;;;9.30;99.90;;;;;;20860203;28;20221;-68
2021/01/23 04:42:43;;;;;;;0.30;0.30;;;9.20;99.90;;;;;;20869569;28;20491;-68
2021/01/23 04:52:46;;;;;;;0.20;0.10;;;9.30;99.90;;;;;;20866876;28;20304;-68
2021/01/23 05:02:59;;;;;;;0.20;0.10;;;9.20;99.90;;;;;;20883090;22;20244;-77
2021/01/23 05:13:15;;;;;;;0.20;0.10;;;8.90;99.90;;;;;;20866832;28;20235;-77
2021/01/23 05:23:20;;;;;;;0.20;0.10;;;8.90;99.90;;;;;;20865005;28;20215;-81
2021/01/23 05:33:25;;;;;;;0.20;0.20;;;9.30;99.90;;;;;;20865721;28;20221;-77
2021/01/23 05:43:32;;;;;;;0.40;0.40;;;9.20;99.90;;;;;;20865576;28;20201;-77
2021/01/23 05:53:36;;;;;;;0.20;0.17;;;9.40;99.90;;;;;;20863627;28;20296;-78
2021/01/23 06:03:41;;;;;;;0.27;0.17;;;9.30;99.90;;;;;;20832198;28;21107;-77
2021/01/23 06:13:46;;;;;;;0.70;0.67;;;9.70;99.90;;;;;;20861255;28;20213;-76
2021/01/23 06:23:50;;;;;;;0.20;0.10;;;9.40;99.90;;;;;;20863563;28;20237;-81
2021/01/23 06:33:55;;;;;;;0.20;0.10;;;9.40;99.90;;;;;;20845419;28;20217;-80
2021/01/23 06:44:18;;;;;;;0.20;0.10;;;9.40;99.90;;;;;;20863534;28;20593;-78
2021/01/23 06:54:22;;;;;;;0.20;0.20;;;9.10;99.90;;;;;;20861917;28;20229;-78
2021/01/23 07:04:26;;;;;;;0.20;0.10;;;8.70;99.90;;;;;;20862103;28;20706;-76
2021/01/23 07:14:29;;;;;;;0.20;0.10;;;8.60;99.90;;;;;;20860907;28;20239;-78
2021/01/23 07:24:34;;;;;;;0.20;0.10;;;8.80;99.90;;;;;;20858920;28;20248;-75
2021/01/23 07:34:37;;;;;;;0.20;0.10;;;8.80;99.90;;;;;;20854781;28;20778;-75
2021/01/23 07:44:40;;;;;;;0.20;0.10;;;9.10;99.90;;;;;;20852105;28;20201;-75
2021/01/23 07:54:51;;;;;;;0.20;0.10;;;9.30;99.90;;;;;;20856942;28;20331;-76
2021/01/23 08:04:54;;;;;;;0.20;0.17;;;9.70;99.90;;;;;;20864919;28;20547;-77
2021/01/23 08:14:58;;;;;;;1.07;0.83;;;10.00;99.90;;;;;;20856680;28;20233;-82
2021/01/23 08:25:26;;;;;;;0.30;0.20;;;10.10;99.90;;;;;;20873409;28;20205;-75
2021/01/23 08:35:31;;;;;;;0.70;0.30;;;10.40;99.90;;;;;;20871538;28;20224;-79
2021/01/23 08:45:35;;;;;;;0.30;0.30;;;10.60;99.90;;;;;;20868644;28;21073;-76
2021/01/23 08:55:42;;;;;;;0.20;0.10;;;10.60;99.90;;;;;;20857215;28;20225;-78
2021/01/23 09:05:46;;;;;;;0.20;0.10;;;10.70;99.90;;;;;;20868908;28;20271;-76
2021/01/23 09:15:50;;;;;;;1.20;0.20;;;11.00;99.90;;;;;;20862617;28;20228;-76
2021/01/23 09:25:53;;;;;;;0.20;0.10;;;11.20;99.90;;;;;;20848988;28;20873;-77
2021/01/23 09:35:58;;;;;;;0.20;0.10;;;11.50;99.90;;;;;;20861137;28;20756;-78
2021/01/23 09:46:00;;;;;;;0.77;0.30;;;11.70;99.90;;;;;;20861464;28;20201;-83
2021/01/23 09:56:05;;;;;;;0.20;0.10;;;12.10;99.90;;;;;;20839427;28;20186;-79
2021/01/23 10:06:08;;;;;;;0.27;0.17;;;12.30;99.90;;;;;;20858229;28;20229;-77
2021/01/23 10:16:11;;;;;;;0.20;0.10;;;12.50;99.90;;;;;;20835048;28;20197;-77
2021/01/23 10:26:14;;;;;;;0.30;0.20;;;12.70;99.90;;;;;;20839879;28;20201;-79
2021/01/23 10:36:19;;;;;;;0.37;0.20;;;12.80;99.90;;;;;;20843842;28;20259;-75
2021/01/23 10:46:21;;;;;;;0.67;0.37;;;13.30;99.90;;;;;;20847608;28;20312;-78
2021/01/23 10:56:25;;;;;;;0.20;0.10;;;13.40;99.90;;;;;;20856931;28;20240;-85
2021/01/23 11:06:27;;;;;;;0.57;0.30;;;14.00;99.90;;;;;;20848980;28;20339;-75
2021/01/23 11:16:32;;;;;;;0.30;0.30;;;14.10;99.90;;;;;;20852465;28;20251;-74
2021/01/23 11:26:35;;;;;;;0.40;0.40;;;13.80;99.90;;;;;;20858885;28;20650;-86
2021/01/23 11:36:39;;;;;;;0.37;0.37;;;13.80;99.90;;;;;;20859760;28;20205;-80
2021/01/23 11:46:42;;;;;;;0.20;0.10;;;14.20;99.90;;;;;;20860983;28;20287;-80
2021/01/23 11:56:46;;;;;;;0.20;0.10;;;14.20;99.90;;;;;;20850871;28;20541;-77
2021/01/23 12:06:49;;;;;;;9.53;0.63;;;14.30;99.90;;;;;;20859575;28;20233;-78
2021/01/23 12:16:52;;;;;;;0.20;0.10;;;14.80;99.90;;;;;;20854310;28;20288;-77
2021/01/23 12:26:55;;;;;;;5.27;2.00;;;15.20;99.90;;;;;;20853549;28;20239;-74
2021/01/23 12:36:58;;;;;;;0.20;0.10;;;15.20;99.90;;;;;;20853154;28;20201;-77
2021/01/23 12:47:01;;;;;;;0.20;0.13;;;16.20;99.90;;;;;;20852344;28;20275;-77
2021/01/23 12:57:06;;;;;;;0.30;0.30;;;16.00;99.90;;;;;;20866184;28;20582;-77
2021/01/23 13:07:09;;;;;;;2.80;0.87;;;17.40;99.90;;;;;;20851373;28;20237;-75
2021/01/23 13:17:13;;;;;;;0.20;0.20;;;17.00;99.90;;;;;;20863112;28;20202;-75
2021/01/23 13:27:17;;;;;;;0.30;0.20;;;16.50;99.90;;;;;;20808839;28;20635;-71
2021/01/23 13:37:20;;;;;;;0.20;0.20;;;15.80;99.90;;;;;;20779569;28;20683;-77
2021/01/23 13:47:23;;;;;;;0.20;0.10;;;17.50;99.90;;;;;;20783019;28;20960;-73
2021/01/23 13:57:27;;;;;;;0.33;0.27;;;18.20;99.90;;;;;;20861030;28;20235;-75
2021/01/23 14:07:30;;;;;;;1.43;0.70;;;17.60;99.90;;;;;;20858450;28;20662;-74
2021/01/23 14:17:33;;;;;;;0.20;0.10;;;17.90;99.90;;;;;;20841425;28;20197;-73
2021/01/23 14:27:37;;;;;;;0.27;0.10;;;18.40;99.90;;;;;;20856603;28;20337;-75
2021/01/23 14:37:41;;;;;;;0.97;0.73;;;18.20;99.90;;;;;;20836225;28;20247;-72
2021/01/23 14:47:47;;;;;;;0.20;0.20;;;17.60;99.90;;;;;;20856088;28;20552;-77
2021/01/23 14:57:51;;;;;;;0.60;0.53;;;18.30;99.90;;;;;;20855944;28;20647;-72
2021/01/23 15:07:54;;;;;;;0.20;0.20;;;17.40;99.90;;;;;;20854250;28;20316;-83
2021/01/23 15:17:58;;;;;;;0.33;0.17;;;18.30;99.90;;;;;;20837063;28;21033;-73
2021/01/23 15:28:02;;;;;;;0.73;0.63;;;17.20;99.90;;;;;;20854839;28;21216;-79
2021/01/23 15:38:06;;;;;;;0.20;0.20;;;17.80;99.90;;;;;;20848928;28;20205;-81
2021/01/23 15:48:10;;;;;;;0.20;0.10;;;15.80;99.90;;;;;;20850608;28;20623;-74
2021/01/23 15:58:14;;;;;;;0.73;0.37;;;16.70;99.90;;;;;;20850680;28;20272;-77
2021/01/23 16:08:17;;;;;;;5.20;0.40;;;16.90;99.90;;;;;;20852841;28;20344;-75
2021/01/23 16:18:21;;;;;;;3.40;0.80;;;15.70;99.90;;;;;;20851148;28;20197;-72
2021/01/23 16:28:24;;;;;;;0.20;0.10;;;15.30;99.90;;;;;;20861917;28;20862;-79
2021/01/23 16:38:27;;;;;;;0.20;0.10;;;14.60;99.90;;;;;;20855673;28;20674;-79
2021/01/23 16:48:33;;;;;;;0.90;0.40;;;14.30;99.90;;;;;;20815805;28;20726;-71
2021/01/23 16:58:38;;;;;;;0.20;0.10;;;14.00;99.90;;;;;;20860580;28;20231;-77
2021/01/23 17:08:41;;;;;;;1.43;0.77;;;13.80;99.90;;;;;;20861565;28;20225;-79
2021/01/23 17:18:44;;;;;;;0.30;0.30;;;13.60;99.90;;;;;;20859668;28;20194;-78
2021/01/23 17:28:47;;;;;;;0.30;0.20;;;13.50;99.90;;;;;;20860661;28;20228;-80
2021/01/23 17:38:51;;;;;;;0.30;0.30;;;13.30;99.90;;;;;;20818340;28;20289;-73
2021/01/23 17:48:55;;;;;;;0.20;0.20;;;13.20;99.90;;;;;;20828642;28;20237;-71
2021/01/23 17:58:59;;;;;;;0.20;0.20;;;13.10;99.90;;;;;;20855650;28;20197;-72
2021/01/23 18:09:02;;;;;;;0.30;0.20;;;13.00;99.90;;;;;;20858958;28;20233;-73
2021/01/23 18:19:08;;;;;;;0.20;0.10;;;13.00;99.90;;;;;;20856606;28;20542;-73
2021/01/23 18:29:11;;;;;;;1.77;0.27;;;12.90;99.90;;;;;;20832981;28;20481;-70
2021/01/23 18:39:15;;;;;;;0.47;0.43;;;12.80;99.90;;;;;;20844468;28;20610;-69
2021/01/23 18:49:18;;;;;;;0.20;0.17;;;12.60;99.90;;;;;;20856156;28;20403;-73
2021/01/23 18:59:23;;;;;;;0.30;0.30;;;12.50;99.90;;;;;;20849853;28;20728;-70
2021/01/23 19:09:26;;;;;;;0.20;0.20;;;12.30;99.90;;;;;;20758166;28;20328;-71
2021/01/23 19:19:30;;;;;;;0.20;0.20;;;12.20;99.90;;;;;;20841327;28;20189;-70
2021/01/23 19:29:34;;;;;;;0.20;0.00;;;12.20;99.90;;;;;;20854510;28;20665;-70
2021/01/23 19:39:37;;;;;;;0.20;0.10;;;12.20;99.90;;;;;;20849266;28;20189;-72
2021/01/23 19:49:40;;;;;;;0.20;0.10;;;12.10;99.90;;;;;;20852451;28;20261;-72
2021/01/23 19:59:44;;;;;;;0.40;0.40;;;12.10;99.90;;;;;;20839255;28;20332;-69
2021/01/23 20:09:47;;;;;;;0.20;0.20;;;12.00;99.90;;;;;;20867405;28;20685;-71
2021/01/23 20:19:50;;;;;;;1.17;1.07;;;12.00;99.90;;;;;;20869067;28;20207;-72
2021/01/23 20:29:53;;;;;;;2.83;1.33;;;12.00;99.90;;;;;;20869011;28;20701;-70
2021/01/23 20:39:57;;;;;;;1.50;1.00;;;11.90;99.90;;;;;;20866192;28;20198;-69
2021/01/23 20:50:01;;;;;;;0.27;0.17;;;11.80;99.90;;;;;;20867365;28;20230;-71
2021/01/23 21:00:07;;;;;;;0.20;0.10;;;11.80;99.90;;;;;;20865381;28;20221;-71
2021/01/23 21:10:11;;;;;;;0.40;0.40;;;11.70;99.90;;;;;;20867624;28;20289;-69
2021/01/23 21:20:17;;;;;;;0.30;0.30;;;11.60;99.90;;;;;;20851972;28;20843;-72
2021/01/23 21:30:21;;;;;;;1.17;0.40;;;11.50;99.90;;;;;;20858401;28;20366;-70
2021/01/23 21:40:25;;;;;;;3.23;0.67;;;11.50;99.90;;;;;;20862430;28;20204;-70
2021/01/23 21:50:29;;;;;;;0.47;0.47;;;11.60;99.90;;;;;;20860857;28;20761;-74
2021/01/23 22:00:33;;;;;;;2.13;0.70;;;11.80;99.90;;;;;;20862073;28;20643;-74
2021/01/23 22:10:36;;;;;;;1.53;0.50;;;11.90;99.90;;;;;;20843163;28;20232;-75
2021/01/23 22:20:39;;;;;;;0.20;0.10;;;11.90;99.90;;;;;;20842922;28;21020;-73
2021/01/23 22:30:42;;;;;;;0.20;0.17;;;11.60;99.90;;;;;;20860910;28;20224;-74
2021/01/23 22:40:47;;;;;;;0.20;0.10;;;11.50;99.90;;;;;;20837443;28;20529;-74
2021/01/23 22:50:50;;;;;;;0.20;0.10;;;11.50;99.90;;;;;;20860330;28;20221;-82
2021/01/23 23:00:55;;;;;;;0.40;0.30;;;11.50;99.90;;;;;;20858658;28;20291;-79
2021/01/23 23:10:58;;;;;;;0.67;0.40;;;11.60;99.90;;;;;;20858286;28;20314;-78
2021/01/23 23:21:02;;;;;;;4.90;0.50;;;11.70;99.90;;;;;;20857793;28;20233;-78
2021/01/23 23:31:04;;;;;;;4.33;0.67;;;11.80;99.90;;;;;;20875792;28;20221;-76
2021/01/23 23:41:08;;;;;;;0.30;0.20;;;11.90;99.90;;;;;;20884984;28;20263;-79
2021/01/23 23:51:11;;;;;;;4.33;0.73;;;12.00;99.90;;;;;;20855950;28;20235;-80
